Gustavus, AK

4:09 AM AKDT on September 21, 2017 (GMT -0800)
Gustavus

Weather History for PAGS - November, 2012

Change the Weather History Date:

Tuesday, November 6, 2012

  Actual Average Record
Temperature  
Mean Temperature 40 °F -  
Max Temperature 42 °F 40 °F 50 °F (2002)
Min Temperature 35 °F 29 °F 10 °F (1950)
Degree Days  
Heating Degree Days 26    
Moisture  
Dew Point 34 °F    
Average Humidity 82    
Maximum Humidity 87    
Minimum Humidity 70    
Precipitation  
Precipitation 0.00 in - - ()
Sea Level Pressure  
Sea Level Pressure 29.79 in    
Wind  
Wind Speed 7 mph (NNW)    
Max Wind Speed 14 mph    
Max Gust Speed 16 mph    
Visibility 10 miles    
Events      
Averages and records for this station are not official NWS values.
T = Trace of Precipitation, MM = Missing Value Source: NWS Daily Summary

Daily Weather History Graph

Daily Weather History Graph

Search for Another Location

Airport or City:

Trip Planner

Search our weather history database for the weather conditions in past years. The results will help you decide how hot, cold, wet, or windy it might be!

Date:

Astronomy

Nov. 06, 2012 Rise Set
Actual Time 7:32 AM AKST 4:00 PM AKST
Civil Twilight 6:48 AM AKST 4:44 PM AKST
Nautical Twilight 6:00 AM AKST 5:31 PM AKST
Astronomical Twilight 5:13 AM AKST 6:18 PM AKST
Moon 11:06 PM AKST (11/6) 1:14 PM AKST (11/6)
Length of Visible Light 9h 55m
Length of Day
8h 27m
Waning Gibbous, 51% of the Moon is Illuminated
Nov 6
Waning Gibbous
Nov 6
Last Quarter
Nov 13
New
Nov 20
First Quarter
Nov 28
Full

Hourly Weather History & Observations

Time (AKST) Temp. Windchill Dew Point Humidity Pressure Visibility Wind Dir Wind Speed Gust Speed Precip Events Conditions
12:16 AM 41.0 °F 38.0 °F 33.8 °F 76% 29.88 in 10.0 mi ESE 4.6 mph - N/A   Overcast
12:36 AM 39.2 °F 35.0 °F 35.6 °F 87% 29.88 in 10.0 mi SSE 5.8 mph - N/A   Overcast
12:56 AM 39.2 °F 34.2 °F 33.8 °F 81% 29.88 in 10.0 mi SE 6.9 mph - N/A   Mostly Cloudy
1:16 AM 39.2 °F 35.0 °F 35.6 °F 87% 29.87 in 10.0 mi SSE 5.8 mph - N/A   Overcast
1:36 AM 41.0 °F 34.7 °F 35.6 °F 81% 29.87 in 10.0 mi SE 10.4 mph - N/A   Overcast
1:56 AM 41.0 °F 34.3 °F 35.6 °F 81% 29.87 in 10.0 mi SSE 11.5 mph - N/A   Overcast
2:16 AM 42.8 °F 36.6 °F 35.6 °F 76% 29.87 in 10.0 mi SE 11.5 mph - N/A   Overcast
2:36 AM 42.8 °F 37.0 °F 35.6 °F 76% 29.87 in 10.0 mi SSE 10.4 mph 16.1 mph N/A   Overcast
2:56 AM 42.8 °F 35.8 °F 33.8 °F 70% 29.87 in 10.0 mi SE 13.8 mph - N/A   Overcast
3:16 AM 42.8 °F 36.2 °F 35.6 °F 76% 29.86 in 10.0 mi SE 12.7 mph - N/A   Overcast
3:36 AM 42.8 °F 38.6 °F 35.6 °F 76% 29.86 in 10.0 mi SSE 6.9 mph - N/A   Overcast
3:56 AM 42.8 °F 38.6 °F 35.6 °F 76% 29.86 in 10.0 mi South 6.9 mph - N/A   Overcast
4:16 AM 42.8 °F 38.6 °F 35.6 °F 76% 29.86 in 10.0 mi SSE 6.9 mph - N/A   Overcast
4:36 AM 42.8 °F 37.5 °F 35.6 °F 76% 29.85 in 10.0 mi SSE 9.2 mph - N/A   Overcast
4:56 AM 42.8 °F 40.1 °F 35.6 °F 76% 29.85 in 10.0 mi SE 4.6 mph - N/A   Overcast
5:16 AM 41.0 °F 38.0 °F 35.6 °F 81% 29.85 in 10.0 mi SE 4.6 mph - N/A   Overcast
5:36 AM 41.0 °F 39.0 °F 35.6 °F 81% 29.85 in 10.0 mi SE 3.5 mph - N/A   Overcast
5:56 AM 41.0 °F 37.1 °F 35.6 °F 81% 29.85 in 10.0 mi SSE 5.8 mph - N/A   Overcast
6:16 AM 41.0 °F 39.0 °F 33.8 °F 76% 29.84 in 10.0 mi ESE 3.5 mph - N/A   Overcast
6:36 AM 41.0 °F - 33.8 °F 76% 29.84 in 10.0 mi Calm Calm - N/A   Overcast
6:56 AM 39.2 °F 37.0 °F 35.6 °F 87% 29.83 in 10.0 mi NW 3.5 mph - N/A   Overcast
7:16 AM 39.2 °F 35.0 °F 33.8 °F 81% 29.83 in 10.0 mi NNW 5.8 mph - N/A   Overcast
7:36 AM 39.2 °F 35.9 °F 33.8 °F 81% 29.83 in 10.0 mi NNW 4.6 mph - N/A   Overcast
7:56 AM 39.2 °F 34.2 °F 33.8 °F 81% 29.82 in 10.0 mi NNW 6.9 mph - N/A   Overcast
8:16 AM 39.2 °F 34.2 °F 33.8 °F 81% 29.81 in 10.0 mi NW 6.9 mph - N/A   Overcast
8:36 AM 39.2 °F 34.2 °F 33.8 °F 81% 29.82 in 10.0 mi NW 6.9 mph - N/A   Overcast
8:56 AM 39.2 °F 34.2 °F 33.8 °F 81% 29.81 in 10.0 mi NNW 6.9 mph - N/A   Overcast
9:16 AM 39.2 °F 33.6 °F 35.6 °F 87% 29.81 in 7.0 mi NNW 8.1 mph - N/A   Overcast
9:36 AM 39.2 °F 34.2 °F 35.6 °F 87% 29.80 in 1.2 mi NNW 6.9 mph - N/A   Overcast
9:56 AM 39.2 °F 34.2 °F 35.6 °F 87% 29.80 in 1.2 mi NNW 6.9 mph - N/A   Overcast
10:16 AM 39.2 °F 33.6 °F 35.6 °F 87% 29.79 in 3.0 mi NNW 8.1 mph - N/A   Overcast
10:36 AM 39.2 °F 33.6 °F 35.6 °F 87% 29.79 in 8.0 mi NNW 8.1 mph - N/A   Overcast
10:56 AM 39.2 °F 35.0 °F 35.6 °F 87% 29.79 in 5.0 mi NNW 5.8 mph - N/A   Overcast
11:16 AM 39.2 °F 35.9 °F 35.6 °F 87% 29.79 in 7.0 mi NW 4.6 mph - N/A   Overcast
11:36 AM 39.2 °F 34.2 °F 35.6 °F 87% 29.78 in 10.0 mi North 6.9 mph - N/A   Overcast
11:56 AM 39.2 °F 35.0 °F 35.6 °F 87% 29.77 in 10.0 mi NNW 5.8 mph - N/A   Overcast
12:16 PM 39.2 °F 33.6 °F 35.6 °F 87% 29.76 in 10.0 mi NNW 8.1 mph - N/A   Overcast
12:36 PM 39.2 °F 35.0 °F 35.6 °F 87% 29.75 in 10.0 mi NNW 5.8 mph - N/A   Overcast
12:56 PM 39.2 °F 33.6 °F 35.6 °F 87% 29.75 in 10.0 mi NNW 8.1 mph - N/A   Overcast
1:16 PM 39.2 °F 34.2 °F 35.6 °F 87% 29.74 in 10.0 mi NNW 6.9 mph - N/A   Overcast
1:36 PM 39.2 °F 35.0 °F 35.6 °F 87% 29.74 in 10.0 mi NNW 5.8 mph - N/A   Overcast
1:56 PM 39.2 °F 35.9 °F 35.6 °F 87% 29.74 in 10.0 mi NNW 4.6 mph - N/A   Overcast
2:16 PM 39.2 °F 35.9 °F 35.6 °F 87% 29.73 in 10.0 mi NNW 4.6 mph - N/A   Overcast
2:36 PM 39.2 °F 35.9 °F 35.6 °F 87% 29.72 in 10.0 mi NNW 4.6 mph - N/A   Overcast
2:56 PM 39.2 °F 35.9 °F 35.6 °F 87% 29.72 in 10.0 mi NNW 4.6 mph - N/A   Overcast
3:16 PM 39.2 °F 35.0 °F 35.6 °F 87% 29.71 in 10.0 mi NNW 5.8 mph - N/A   Overcast
3:36 PM 39.2 °F 35.0 °F 35.6 °F 87% 29.71 in 10.0 mi NNW 5.8 mph - N/A   Overcast
3:56 PM 39.2 °F 35.0 °F 35.6 °F 87% 29.71 in 10.0 mi NNW 5.8 mph - N/A   Overcast
4:16 PM 39.2 °F 34.2 °F 35.6 °F 87% 29.71 in 10.0 mi NNW 6.9 mph - N/A   Overcast
4:36 PM 39.2 °F 34.2 °F 35.6 °F 87% 29.70 in 10.0 mi NNW 6.9 mph - N/A   Overcast
4:56 PM 39.2 °F 35.9 °F 33.8 °F 81% 29.70 in 10.0 mi North 4.6 mph - N/A   Overcast
5:16 PM 39.2 °F 35.0 °F 33.8 °F 81% 29.71 in 10.0 mi North 5.8 mph - N/A   Overcast
5:36 PM 39.2 °F 34.2 °F 33.8 °F 81% 29.71 in 9.0 mi North 6.9 mph - N/A   Overcast
5:56 PM 39.2 °F 35.0 °F 33.8 °F 81% 29.71 in 10.0 mi NNW 5.8 mph - N/A   Overcast
6:16 PM 39.2 °F 34.2 °F 33.8 °F 81% 29.72 in 10.0 mi NNW 6.9 mph - N/A   Overcast
6:36 PM 39.2 °F 33.6 °F 33.8 °F 81% 29.72 in 10.0 mi North 8.1 mph - N/A   Overcast
6:56 PM 37.4 °F 30.8 °F 33.8 °F 87% 29.72 in 10.0 mi NNW 9.2 mph - N/A   Overcast
7:16 PM 37.4 °F 31.4 °F 33.8 °F 87% 29.73 in 10.0 mi NNW 8.1 mph - N/A   Overcast
7:36 PM 37.4 °F 31.4 °F 32.0 °F 81% 29.73 in 10.0 mi NNW 8.1 mph - N/A   Mostly Cloudy
7:56 PM 37.4 °F 30.3 °F 33.8 °F 87% 29.73 in 10.0 mi NNW 10.4 mph - N/A   Overcast
8:16 PM 37.4 °F 30.3 °F 32.0 °F 81% 29.74 in 10.0 mi NNW 10.4 mph - N/A   Overcast
8:36 PM 37.4 °F 29.8 °F 32.0 °F 81% 29.74 in 10.0 mi NNW 11.5 mph - N/A   Overcast
8:56 PM 37.4 °F 30.3 °F 32.0 °F 81% 29.75 in 10.0 mi NNW 10.4 mph - N/A   Overcast
9:16 PM 37.4 °F 30.8 °F 32.0 °F 81% 29.76 in 10.0 mi NNW 9.2 mph - N/A   Overcast
9:36 PM 37.4 °F 31.4 °F 30.2 °F 75% 29.76 in 10.0 mi NNW 8.1 mph - N/A   Overcast
9:56 PM 37.4 °F 30.8 °F 30.2 °F 75% 29.77 in 10.0 mi NNW 9.2 mph - N/A   Overcast
10:16 PM 37.4 °F 31.4 °F 30.2 °F 75% 29.78 in 10.0 mi North 8.1 mph - N/A   Overcast
10:36 PM 37.4 °F 30.8 °F 30.2 °F 75% 29.78 in 10.0 mi NNW 9.2 mph - N/A   Overcast
10:56 PM 37.4 °F 31.4 °F 30.2 °F 75% 29.78 in 10.0 mi NNW 8.1 mph - N/A   Overcast
11:16 PM 37.4 °F 30.8 °F 30.2 °F 75% 29.79 in 10.0 mi NNW 9.2 mph - N/A   Overcast
11:56 PM 35.6 °F 28.0 °F 30.2 °F 81% 29.81 in 10.0 mi NNW 10.4 mph - N/A   Overcast